Time;durP1;ratioP1;P1;durP2;ratioP2;P2;SDS_P1;SDS_P2;PMS_P1;PMS_P2;Temp;Humidity;BMP_temperature;BMP_pressure;BME280_temperature;BME280_humidity;BME280_pressure;Samples;Min_cycle;Max_cycle;Signal;HPM_P1;HPM_P2
2023/01/11 00:02:09;;;;;;;44.78;21.15;;;;;;;;;;12837609;19;20469;-66
2023/01/11 00:06:45;;;;;;;53.95;24.25;;;;;;;;;;12843717;19;20350;-66
2023/01/11 00:11:21;;;;;;;50.97;24.23;;;;;;;;;;12847075;19;20334;-69
2023/01/11 00:15:39;;;;;;;52.83;25.30;;;;;;;;;;12846317;19;20336;-66
2023/01/11 00:19:57;;;;;;;45.05;22.98;;;;;;;;;;12845184;19;20481;-66
2023/01/11 00:24:15;;;;;;;43.83;22.40;;;;;;;;;;12844157;19;20336;-66
2023/01/11 00:28:33;;;;;;;48.55;22.27;;;;;;;;;;12846163;19;20007;-67
2023/01/11 00:32:55;;;;;;;53.65;25.35;;;;;;;;;;12846714;19;20341;-66
2023/01/11 00:37:13;;;;;;;40.38;20.50;;;;;;;;;;12845039;19;20659;-66
2023/01/11 00:50:44;;;;;;;38.83;19.90;;;;;;;;;;12844905;19;20472;-66
2023/01/11 00:55:02;;;;;;;37.13;17.67;;;;;;;;;;12842716;19;20469;-67
2023/01/11 00:59:19;;;;;;;39.40;19.47;;;;;;;;;;12844598;19;20319;-67
2023/01/11 01:03:37;;;;;;;36.60;19.67;;;;;;;;;;12844382;19;20421;-66
2023/01/11 01:07:55;;;;;;;38.20;19.00;;;;;;;;;;12843404;19;20784;-66
2023/01/11 01:17:08;;;;;;;42.90;21.65;;;;;;;;;;12841692;19;20006;-66
2023/01/11 01:21:26;;;;;;;42.13;22.25;;;;;;;;;;12842345;19;20338;-67
2023/01/11 01:25:44;;;;;;;37.22;19.63;;;;;;;;;;12843343;19;20457;-66
2023/01/11 01:30:02;;;;;;;38.90;19.50;;;;;;;;;;12843172;19;20425;-67
2023/01/11 01:34:20;;;;;;;41.53;18.75;;;;;;;;;;12842294;19;20503;-66
2023/01/11 01:38:38;;;;;;;35.73;18.17;;;;;;;;;;12841748;19;20429;-67
2023/01/11 01:42:56;;;;;;;36.30;18.73;;;;;;;;;;12843152;19;20453;-66
2023/01/11 01:47:14;;;;;;;31.88;19.13;;;;;;;;;;12840101;19;20483;-66
2023/01/11 01:51:47;;;;;;;38.67;20.65;;;;;;;;;;12842525;19;20005;-66
2023/01/11 01:56:25;;;;;;;28.70;15.48;;;;;;;;;;12842742;19;20478;-66
2023/01/11 02:00:44;;;;;;;24.25;11.98;;;;;;;;;;12840367;19;20471;-66
2023/01/11 02:05:03;;;;;;;29.05;12.88;;;;;;;;;;12839640;19;20354;-67
2023/01/11 02:09:46;;;;;;;18.98;10.57;;;;;;;;;;12841825;19;20456;-67
2023/01/11 02:14:10;;;;;;;22.17;11.65;;;;;;;;;;12521436;19;3007594;-66
2023/01/11 02:18:28;;;;;;;21.23;11.85;;;;;;;;;;12840097;19;20015;-66
2023/01/11 02:23:04;;;;;;;24.47;12.50;;;;;;;;;;12841004;19;20473;-66
2023/01/11 02:27:27;;;;;;;20.08;11.57;;;;;;;;;;12836918;19;20633;-66
2023/01/11 02:31:53;;;;;;;22.73;11.50;;;;;;;;;;12840761;19;20456;-66
2023/01/11 02:36:32;;;;;;;20.73;12.02;;;;;;;;;;12837255;19;20465;-66
2023/01/11 02:41:08;;;;;;;21.45;12.40;;;;;;;;;;12838563;19;20509;-66
2023/01/11 02:45:44;;;;;;;23.85;12.73;;;;;;;;;;12838977;19;20449;-66
2023/01/11 02:50:32;;;;;;;21.65;11.63;;;;;;;;;;12837478;19;20452;-66
2023/01/11 02:54:55;;;;;;;19.67;11.40;;;;;;;;;;12838388;19;20429;-66
2023/01/11 02:59:19;;;;;;;19.63;11.20;;;;;;;;;;12836571;19;20469;-66
2023/01/11 03:03:37;;;;;;;22.67;12.30;;;;;;;;;;12837842;19;20006;-66
2023/01/11 03:08:04;;;;;;;15.83;10.70;;;;;;;;;;12836999;19;20351;-66
2023/01/11 03:12:53;;;;;;;18.63;11.18;;;;;;;;;;12837482;19;20351;-66
2023/01/11 03:17:44;;;;;;;20.52;11.52;;;;;;;;;;12835872;19;20489;-68
2023/01/11 03:22:35;;;;;;;20.25;10.90;;;;;;;;;;12835872;19;20456;-66
2023/01/11 03:27:02;;;;;;;20.05;11.57;;;;;;;;;;12835840;19;20501;-65
2023/01/11 03:31:31;;;;;;;27.52;12.65;;;;;;;;;;12836598;19;20448;-66
2023/01/11 03:36:19;;;;;;;27.20;14.23;;;;;;;;;;12835920;19;20362;-65
2023/01/11 03:40:43;;;;;;;27.60;14.00;;;;;;;;;;12849748;19;20064;-66
2023/01/11 03:45:02;;;;;;;25.58;14.05;;;;;;;;;;12859676;19;20355;-66
2023/01/11 03:49:39;;;;;;;24.70;13.50;;;;;;;;;;12861019;19;20444;-67
2023/01/11 03:53:59;;;;;;;29.38;14.10;;;;;;;;;;12859953;19;20299;-66
2023/01/11 03:58:17;;;;;;;24.58;13.93;;;;;;;;;;12858431;19;20011;-67
2023/01/11 04:02:39;;;;;;;23.75;13.93;;;;;;;;;;12859266;19;20482;-67
2023/01/11 04:06:57;;;;;;;22.17;12.70;;;;;;;;;;12860800;19;20464;-67
2023/01/11 04:11:15;;;;;;;20.57;11.90;;;;;;;;;;12857647;19;20014;-66
2023/01/11 04:15:34;;;;;;;18.17;11.60;;;;;;;;;;12858427;19;20441;-67
2023/01/11 04:19:52;;;;;;;20.65;11.43;;;;;;;;;;12860060;19;20338;-66
2023/01/11 04:24:09;;;;;;;18.67;11.48;;;;;;;;;;12859238;19;20437;-67
2023/01/11 04:28:28;;;;;;;20.60;12.30;;;;;;;;;;12857418;19;20314;-65
2023/01/11 04:32:46;;;;;;;22.65;11.73;;;;;;;;;;12859386;19;20465;-66
2023/01/11 04:37:03;;;;;;;17.30;10.30;;;;;;;;;;12857164;19;20429;-66
2023/01/11 04:45:58;;;;;;;22.95;12.48;;;;;;;;;;12858746;19;21476;-66
2023/01/11 04:50:16;;;;;;;35.83;16.98;;;;;;;;;;12853292;19;20433;-66
2023/01/11 04:54:34;;;;;;;26.33;14.43;;;;;;;;;;12844604;19;20355;-66
2023/01/11 04:58:52;;;;;;;28.33;14.00;;;;;;;;;;12845221;19;20307;-66
2023/01/11 05:03:10;;;;;;;27.48;14.27;;;;;;;;;;12844090;19;20485;-66
2023/01/11 05:07:28;;;;;;;30.58;15.27;;;;;;;;;;12845023;19;20421;-67
2023/01/11 05:11:46;;;;;;;31.87;14.33;;;;;;;;;;12844744;19;20465;-65
2023/01/11 05:16:04;;;;;;;34.30;14.93;;;;;;;;;;12846723;19;20298;-66
2023/01/11 05:20:21;;;;;;;33.08;16.80;;;;;;;;;;12843229;19;20014;-66
2023/01/11 05:24:39;;;;;;;35.30;17.05;;;;;;;;;;12842164;19;20370;-65
2023/01/11 05:29:00;;;;;;;31.53;15.80;;;;;;;;;;12842364;19;20386;-67
2023/01/11 05:33:18;;;;;;;31.30;15.38;;;;;;;;;;12843090;19;20429;-66
2023/01/11 05:37:37;;;;;;;29.65;14.80;;;;;;;;;;12841504;19;20385;-66
2023/01/11 05:41:54;;;;;;;36.67;17.38;;;;;;;;;;12818384;19;20464;-66
2023/01/11 05:46:12;;;;;;;30.52;16.23;;;;;;;;;;12841379;19;20477;-67
2023/01/11 05:50:30;;;;;;;35.97;16.33;;;;;;;;;;12843042;19;20614;-67
2023/01/11 05:54:47;;;;;;;26.70;14.00;;;;;;;;;;12843120;19;20464;-67
2023/01/11 05:59:05;;;;;;;29.35;15.25;;;;;;;;;;12841212;19;20334;-67
2023/01/11 06:03:25;;;;;;;29.33;15.57;;;;;;;;;;12840166;19;20025;-66
2023/01/11 06:07:43;;;;;;;31.73;16.55;;;;;;;;;;12842152;19;20328;-66
2023/01/11 06:12:00;;;;;;;35.63;17.33;;;;;;;;;;12841418;19;20368;-66
2023/01/11 06:16:20;;;;;;;32.87;16.60;;;;;;;;;;12840833;19;20018;-66
2023/01/11 06:20:38;;;;;;;35.42;16.30;;;;;;;;;;12841552;19;20476;-66
2023/01/11 06:24:56;;;;;;;29.13;14.23;;;;;;;;;;12842588;19;20306;-65
2023/01/11 06:29:14;;;;;;;29.07;13.57;;;;;;;;;;12839744;19;20011;-66
2023/01/11 06:33:32;;;;;;;28.48;15.00;;;;;;;;;;12840709;19;20469;-68
2023/01/11 06:37:50;;;;;;;26.60;14.13;;;;;;;;;;12838834;19;20468;-67
2023/01/11 06:42:08;;;;;;;21.73;12.40;;;;;;;;;;12838913;19;20407;-66
2023/01/11 06:46:25;;;;;;;22.93;13.07;;;;;;;;;;12840370;19;20437;-66
2023/01/11 06:50:50;;;;;;;22.90;12.07;;;;;;;;;;12840657;19;20022;-69
2023/01/11 06:55:08;;;;;;;15.48;9.40;;;;;;;;;;12836688;19;20015;-66
2023/01/11 06:59:26;;;;;;;20.65;12.10;;;;;;;;;;12838919;19;20444;-66
2023/01/11 07:03:44;;;;;;;20.30;11.53;;;;;;;;;;12839488;19;20465;-66
2023/01/11 07:08:02;;;;;;;17.20;10.80;;;;;;;;;;12838126;19;20437;-66
2023/01/11 07:12:20;;;;;;;19.00;11.15;;;;;;;;;;12836377;19;20461;-67
2023/01/11 07:16:38;;;;;;;19.25;10.60;;;;;;;;;;12838284;19;20351;-65
2023/01/11 07:20:55;;;;;;;26.40;13.90;;;;;;;;;;12838632;19;20306;-66
2023/01/11 07:25:13;;;;;;;15.73;9.57;;;;;;;;;;12836787;19;20433;-66
2023/01/11 07:29:31;;;;;;;17.33;10.70;;;;;;;;;;12835155;19;20425;-67
2023/01/11 07:33:49;;;;;;;16.67;10.02;;;;;;;;;;12838744;19;20432;-66
2023/01/11 07:38:09;;;;;;;18.95;11.13;;;;;;;;;;12835909;19;20014;-66
2023/01/11 07:47:02;;;;;;;17.35;10.82;;;;;;;;;;12833601;19;20018;-67
2023/01/11 07:51:22;;;;;;;14.38;9.23;;;;;;;;;;12834196;19;20347;-66
2023/01/11 07:55:41;;;;;;;14.73;9.32;;;;;;;;;;12836933;19;20440;-66
2023/01/11 07:59:59;;;;;;;19.60;11.55;;;;;;;;;;12836311;19;20335;-67
2023/01/11 08:04:16;;;;;;;17.63;9.82;;;;;;;;;;12835523;19;20340;-67
2023/01/11 08:08:34;;;;;;;16.17;10.20;;;;;;;;;;12834206;19;20106;-66
2023/01/11 08:17:28;;;;;;;15.02;8.48;;;;;;;;;;12834545;19;20404;-68
2023/01/11 08:21:46;;;;;;;15.35;8.93;;;;;;;;;;12833773;19;20331;-67
2023/01/11 08:26:04;;;;;;;16.13;9.07;;;;;;;;;;12836481;19;20497;-68
2023/01/11 08:30:21;;;;;;;16.53;10.23;;;;;;;;;;12847207;19;20027;-68
2023/01/11 08:34:39;;;;;;;22.77;12.65;;;;;;;;;;12846913;19;20343;-66
2023/01/11 08:38:57;;;;;;;16.33;8.47;;;;;;;;;;12846618;19;20374;-67
2023/01/11 08:43:15;;;;;;;14.97;9.20;;;;;;;;;;12844627;19;20494;-68
2023/01/11 08:47:32;;;;;;;14.17;8.73;;;;;;;;;;12845596;19;20603;-67
2023/01/11 08:51:51;;;;;;;16.70;9.13;;;;;;;;;;12845962;19;20430;-67
2023/01/11 08:56:08;;;;;;;13.40;8.40;;;;;;;;;;12843007;19;20010;-67
2023/01/11 09:00:26;;;;;;;14.27;8.97;;;;;;;;;;12845110;19;20353;-68
2023/01/11 09:04:44;;;;;;;16.98;8.93;;;;;;;;;;12843568;19;20086;-67
2023/01/11 09:09:02;;;;;;;15.30;9.20;;;;;;;;;;12843391;19;20470;-67
2023/01/11 09:13:19;;;;;;;15.15;8.38;;;;;;;;;;12845165;19;20010;-67
2023/01/11 09:17:37;;;;;;;13.27;8.03;;;;;;;;;;12844538;19;20495;-67
2023/01/11 09:21:56;;;;;;;15.68;8.60;;;;;;;;;;12841784;19;20485;-69
2023/01/11 09:26:15;;;;;;;17.02;9.40;;;;;;;;;;12844294;19;20070;-67
2023/01/11 09:30:33;;;;;;;15.63;9.45;;;;;;;;;;12842243;19;20436;-67
2023/01/11 09:34:56;;;;;;;16.07;9.07;;;;;;;;;;12843504;19;20375;-67
2023/01/11 09:39:17;;;;;;;13.23;8.43;;;;;;;;;;12842087;19;20583;-66
2023/01/11 09:43:45;;;;;;;12.75;7.20;;;;;;;;;;12843034;19;20449;-67
2023/01/11 09:48:21;;;;;;;16.05;9.23;;;;;;;;;;12839876;19;20078;-66
2023/01/11 09:52:50;;;;;;;16.35;8.80;;;;;;;;;;12843154;19;20650;-66
2023/01/11 09:57:39;;;;;;;18.25;10.07;;;;;;;;;;12839792;19;20473;-66
2023/01/11 10:02:14;;;;;;;15.85;9.02;;;;;;;;;;12839274;19;20373;-66
2023/01/11 10:07:14;;;;;;;20.83;9.27;;;;;;;;;;12837861;19;20010;-66
2023/01/11 10:12:03;;;;;;;16.13;10.30;;;;;;;;;;12839177;19;20332;-66
2023/01/11 10:17:37;;;;;;;20.08;9.98;;;;;;;;;;12841207;19;20478;-66
2023/01/11 10:22:35;;;;;;;20.58;12.25;;;;;;;;;;12833436;19;20377;-67
2023/01/11 10:27:00;;;;;;;;;;;;;;;;;;12841550;19;20026;-67
2023/01/11 10:31:44;;;;;;;24.40;14.88;;;;;;;;;;12841777;19;20260;-68
2023/01/11 10:41:09;;;;;;;17.33;7.90;;;;;;;;;;12838468;19;20010;-66
2023/01/11 10:45:43;;;;;;;19.00;9.40;;;;;;;;;;12837600;19;20482;-65
2023/01/11 10:50:29;;;;;;;12.32;5.88;;;;;;;;;;12835208;19;20027;-66
2023/01/11 10:54:52;;;;;;;11.00;6.63;;;;;;;;;;12837345;19;20436;-67
2023/01/11 10:59:25;;;;;;;18.55;9.32;;;;;;;;;;12836024;19;20327;-65
2023/01/11 11:04:11;;;;;;;14.52;7.68;;;;;;;;;;12837652;19;20042;-65
2023/01/11 11:08:51;;;;;;;14.63;6.60;;;;;;;;;;12838439;19;20460;-65
2023/01/11 11:13:40;;;;;;;34.20;12.85;;;;;;;;;;12834716;19;20010;-67
2023/01/11 11:17:59;;;;;;;18.23;7.70;;;;;;;;;;12838198;19;20364;-66
2023/01/11 11:22:19;;;;;;;11.90;5.78;;;;;;;;;;12835866;19;20006;-65
2023/01/11 11:26:43;;;;;;;8.20;4.93;;;;;;;;;;12837531;19;20441;-66
2023/01/11 11:31:04;;;;;;;16.20;6.95;;;;;;;;;;12837598;19;20530;-67
2023/01/11 11:35:36;;;;;;;17.15;7.93;;;;;;;;;;12836037;19;20494;-66
2023/01/11 11:39:55;;;;;;;8.73;5.65;;;;;;;;;;12837222;19;20063;-66
2023/01/11 11:44:30;;;;;;;;;;;;;;;;;;12835675;19;20426;-66
2023/01/11 11:49:16;;;;;;;13.30;8.00;;;;;;;;;;12833946;19;20274;-66
2023/01/11 11:53:46;;;;;;;13.07;7.57;;;;;;;;;;12836389;19;20480;-66
2023/01/11 11:58:07;;;;;;;12.88;7.57;;;;;;;;;;12833182;19;20503;-66
2023/01/11 12:02:30;;;;;;;16.75;10.00;;;;;;;;;;12844411;19;20749;-67
2023/01/11 12:07:22;;;;;;;18.65;10.48;;;;;;;;;;12844979;19;20438;-67
2023/01/11 12:11:41;;;;;;;18.10;9.55;;;;;;;;;;12845814;19;20010;-66
2023/01/11 12:16:22;;;;;;;17.52;9.43;;;;;;;;;;12844670;19;20373;-67
2023/01/11 12:20:41;;;;;;;21.13;11.38;;;;;;;;;;12842350;19;20486;-66
2023/01/11 12:25:13;;;;;;;18.52;10.07;;;;;;;;;;12845717;19;20520;-66
2023/01/11 12:29:58;;;;;;;18.55;9.82;;;;;;;;;;12844807;19;20485;-67
2023/01/11 12:34:31;;;;;;;21.30;13.00;;;;;;;;;;12845284;19;20478;-66
2023/01/11 12:39:01;;;;;;;30.73;16.20;;;;;;;;;;12845007;19;20371;-66
2023/01/11 12:43:37;;;;;;;19.85;11.00;;;;;;;;;;12842873;19;20066;-66
2023/01/11 12:48:16;;;;;;;20.58;11.52;;;;;;;;;;12844797;19;20359;-66
2023/01/11 12:53:01;;;;;;;17.65;9.38;;;;;;;;;;12843684;19;20015;-67
2023/01/11 13:02:47;;;;;;;18.80;10.10;;;;;;;;;;12844394;19;20379;-67
2023/01/11 13:07:56;;;;;;;19.98;9.98;;;;;;;;;;12842180;19;20469;-67
2023/01/11 13:12:27;;;;;;;20.40;10.98;;;;;;;;;;12841424;19;20388;-66
2023/01/11 13:17:09;;;;;;;23.83;12.70;;;;;;;;;;12843187;19;20541;-66
2023/01/11 13:21:42;;;;;;;21.17;12.02;;;;;;;;;;12843482;19;20493;-66
2023/01/11 13:26:25;;;;;;;18.45;11.00;;;;;;;;;;12844000;19;20636;-67
2023/01/11 13:30:44;;;;;;;20.33;11.32;;;;;;;;;;12841988;19;20010;-66
2023/01/11 13:35:15;;;;;;;20.08;10.88;;;;;;;;;;12843249;19;20473;-67
2023/01/11 13:39:47;;;;;;;18.50;10.55;;;;;;;;;;12841430;19;20324;-68
2023/01/11 13:44:17;;;;;;;17.33;10.93;;;;;;;;;;12839322;19;20134;-65
2023/01/11 13:48:54;;;;;;;18.48;10.85;;;;;;;;;;12842656;19;20441;-65
2023/01/11 13:53:35;;;;;;;17.10;10.80;;;;;;;;;;12840022;19;20014;-68
2023/01/11 13:58:04;;;;;;;17.13;9.73;;;;;;;;;;12842178;19;20476;-66
2023/01/11 14:02:37;;;;;;;18.80;9.80;;;;;;;;;;12838864;19;20484;-65
2023/01/11 14:07:43;;;;;;;19.08;9.00;;;;;;;;;;12841722;19;20347;-66
2023/01/11 14:12:10;;;;;;;15.27;8.38;;;;;;;;;;12838581;19;20380;-65
2023/01/11 14:16:39;;;;;;;16.65;9.75;;;;;;;;;;12840997;19;20384;-65
2023/01/11 14:21:28;;;;;;;17.25;9.70;;;;;;;;;;12839787;19;20363;-65
2023/01/11 14:26:01;;;;;;;19.27;10.30;;;;;;;;;;12837767;19;20383;-65
2023/01/11 14:30:38;;;;;;;19.85;9.60;;;;;;;;;;12842787;19;20339;-65
2023/01/11 14:35:18;;;;;;;20.17;11.80;;;;;;;;;;12838503;19;20347;-68
2023/01/11 14:40:04;;;;;;;23.13;10.88;;;;;;;;;;12840444;19;20338;-65
2023/01/11 14:45:15;;;;;;;18.73;10.80;;;;;;;;;;12836059;19;20373;-66
2023/01/11 14:50:07;;;;;;;20.90;10.70;;;;;;;;;;12838777;19;20346;-65
2023/01/11 14:54:48;;;;;;;15.07;9.40;;;;;;;;;;12839630;19;20452;-65
2023/01/11 14:59:34;;;;;;;20.75;10.57;;;;;;;;;;12836794;19;20088;-67
2023/01/11 15:03:55;;;;;;;19.83;10.07;;;;;;;;;;12838781;19;20347;-67
2023/01/11 15:08:12;;;;;;;24.08;13.25;;;;;;;;;;12837436;19;20493;-65
2023/01/11 15:12:38;;;;;;;22.20;11.57;;;;;;;;;;12837625;19;20359;-66
2023/01/11 15:21:47;;;;;;;37.80;18.48;;;;;;;;;;12836454;19;20509;-65
2023/01/11 15:26:08;;;;;;;58.70;22.97;;;;;;;;;;12835887;19;20389;-65
2023/01/11 15:30:29;;;;;;;50.15;22.05;;;;;;;;;;12835388;19;20505;-66
2023/01/11 15:34:48;;;;;;;46.60;19.83;;;;;;;;;;12836171;19;20367;-65
2023/01/11 15:39:08;;;;;;;34.05;16.33;;;;;;;;;;12835852;19;20429;-66
2023/01/11 15:44:00;;;;;;;24.02;13.95;;;;;;;;;;12834188;19;20356;-66
2023/01/11 15:49:12;;;;;;;22.90;13.55;;;;;;;;;;12835485;19;20176;-66
2023/01/11 15:54:23;;;;;;;36.40;15.98;;;;;;;;;;12829053;19;20519;-65
2023/01/11 15:59:18;;;;;;;34.58;13.98;;;;;;;;;;12833706;19;20434;-65
2023/01/11 16:04:17;;;;;;;30.90;12.95;;;;;;;;;;12834345;19;20485;-66
2023/01/11 16:08:47;;;;;;;25.05;13.98;;;;;;;;;;12834557;19;20425;-65
2023/01/11 16:13:17;;;;;;;23.88;13.75;;;;;;;;;;12832961;19;20326;-67
2023/01/11 16:17:39;;;;;;;23.17;12.93;;;;;;;;;;12828798;19;20374;-65
2023/01/11 16:22:02;;;;;;;27.10;14.10;;;;;;;;;;12832482;19;20489;-65
2023/01/11 16:26:20;;;;;;;28.67;15.23;;;;;;;;;;12328568;19;10001537;-64
2023/01/11 16:30:39;;;;;;;30.08;14.93;;;;;;;;;;12833353;19;20437;-64
2023/01/11 16:34:59;;;;;;;31.02;15.98;;;;;;;;;;12832542;19;20505;-64
2023/01/11 16:39:26;;;;;;;30.17;13.65;;;;;;;;;;12832580;19;20469;-64
2023/01/11 16:43:58;;;;;;;32.80;16.90;;;;;;;;;;12831578;19;20395;-64
2023/01/11 16:48:31;;;;;;;30.73;16.92;;;;;;;;;;12836058;19;20493;-65
2023/01/11 16:52:53;;;;;;;38.20;20.80;;;;;;;;;;12846313;19;20469;-64
2023/01/11 16:57:13;;;;;;;38.85;18.02;;;;;;;;;;12845048;19;20038;-65
2023/01/11 17:01:52;;;;;;;29.48;15.68;;;;;;;;;;12844707;19;20393;-66
2023/01/11 17:06:21;;;;;;;31.85;15.77;;;;;;;;;;12844606;19;20488;-63
2023/01/11 17:10:38;;;;;;;32.20;14.35;;;;;;;;;;12844795;19;20396;-65
2023/01/11 17:15:08;;;;;;;24.60;12.00;;;;;;;;;;12845797;19;20522;-64
2023/01/11 17:19:29;;;;;;;29.92;13.55;;;;;;;;;;12841274;19;20069;-64
2023/01/11 17:23:50;;;;;;;28.50;15.32;;;;;;;;;;12843843;19;20430;-64
2023/01/11 17:28:16;;;;;;;48.78;23.33;;;;;;;;;;12843008;19;20089;-64
2023/01/11 17:32:42;;;;;;;42.67;19.83;;;;;;;;;;12844197;19;20014;-64
2023/01/11 17:37:03;;;;;;;36.30;17.17;;;;;;;;;;12842756;19;20462;-67
2023/01/11 17:46:01;;;;;;;49.20;19.38;;;;;;;;;;12841628;19;20469;-65
2023/01/11 17:50:53;;;;;;;39.70;16.80;;;;;;;;;;12840541;19;20302;-64
2023/01/11 17:55:20;;;;;;;25.55;13.50;;;;;;;;;;12841497;19;20339;-65
2023/01/11 17:59:38;;;;;;;30.02;16.00;;;;;;;;;;12839014;19;20457;-63
2023/01/11 18:03:57;;;;;;;29.52;17.80;;;;;;;;;;12841412;19;20077;-65
2023/01/11 18:08:20;;;;;;;39.63;18.42;;;;;;;;;;12839515;19;20026;-66
2023/01/11 18:12:43;;;;;;;54.53;23.83;;;;;;;;;;12842662;19;20432;-63
2023/01/11 18:17:23;;;;;;;54.03;21.15;;;;;;;;;;12838602;19;20497;-63
2023/01/11 18:21:53;;;;;;;51.63;17.95;;;;;;;;;;12841105;19;20365;-64
2023/01/11 18:26:27;;;;;;;50.40;20.52;;;;;;;;;;12840512;19;20566;-64
2023/01/11 18:30:52;;;;;;;39.92;18.65;;;;;;;;;;12838690;19;20082;-65
2023/01/11 18:35:19;;;;;;;34.75;18.42;;;;;;;;;;12836698;19;20347;-66
2023/01/11 18:39:37;;;;;;;30.60;14.18;;;;;;;;;;12840789;19;20464;-68
2023/01/11 18:43:55;;;;;;;36.53;17.33;;;;;;;;;;12840064;19;20512;-64
2023/01/11 18:48:13;;;;;;;43.97;20.77;;;;;;;;;;12835732;19;20360;-64
2023/01/11 18:52:31;;;;;;;28.70;13.90;;;;;;;;;;12835913;19;20006;-66
2023/01/11 18:56:48;;;;;;;30.83;14.10;;;;;;;;;;12839634;19;20522;-64
2023/01/11 19:01:08;;;;;;;25.15;12.23;;;;;;;;;;12838208;19;20371;-66
2023/01/11 19:05:25;;;;;;;29.30;13.90;;;;;;;;;;12839081;19;20460;-64
2023/01/11 19:09:44;;;;;;;32.67;14.77;;;;;;;;;;12837844;19;20430;-65
2023/01/11 19:14:01;;;;;;;33.53;18.23;;;;;;;;;;12838009;19;20468;-66
2023/01/11 19:18:20;;;;;;;32.03;16.63;;;;;;;;;;12838453;19;20469;-64
2023/01/11 19:22:38;;;;;;;26.43;15.70;;;;;;;;;;12837369;19;20093;-65
2023/01/11 19:26:56;;;;;;;35.00;19.30;;;;;;;;;;12838671;19;20465;-66
2023/01/11 19:31:13;;;;;;;54.80;19.98;;;;;;;;;;12836337;19;20367;-65
2023/01/11 19:35:32;;;;;;;46.72;19.58;;;;;;;;;;12837102;19;20348;-65
2023/01/11 19:39:49;;;;;;;40.33;18.50;;;;;;;;;;12837641;19;20382;-65
2023/01/11 19:44:07;;;;;;;28.23;17.13;;;;;;;;;;12834406;19;20481;-66
2023/01/11 19:48:24;;;;;;;45.97;16.40;;;;;;;;;;12838715;19;20453;-65
2023/01/11 19:52:43;;;;;;;34.90;16.75;;;;;;;;;;12836646;19;20040;-63
2023/01/11 19:57:01;;;;;;;73.60;32.50;;;;;;;;;;12831125;19;20377;-66
2023/01/11 20:01:19;;;;;;;89.05;28.58;;;;;;;;;;12829850;19;20804;-65
2023/01/11 20:05:37;;;;;;;81.18;30.15;;;;;;;;;;12836034;19;20311;-65
2023/01/11 20:09:54;;;;;;;63.83;25.30;;;;;;;;;;12838165;19;20339;-64
2023/01/11 20:14:12;;;;;;;54.37;24.53;;;;;;;;;;12834035;19;20307;-64
2023/01/11 20:18:30;;;;;;;42.87;23.03;;;;;;;;;;12834650;19;20520;-64
2023/01/11 20:22:48;;;;;;;34.37;18.93;;;;;;;;;;12840036;19;20473;-64
2023/01/11 20:27:06;;;;;;;35.67;19.70;;;;;;;;;;12847521;19;20376;-64
2023/01/11 20:31:26;;;;;;;40.23;19.83;;;;;;;;;;12847611;19;20508;-64
2023/01/11 20:35:45;;;;;;;44.47;22.00;;;;;;;;;;12847000;19;20745;-64
2023/01/11 20:40:03;;;;;;;46.10;22.63;;;;;;;;;;12847386;19;20489;-65
2023/01/11 20:44:24;;;;;;;57.22;25.55;;;;;;;;;;12847948;19;20458;-66
2023/01/11 20:48:42;;;;;;;58.15;25.58;;;;;;;;;;12846504;19;20073;-65
2023/01/11 20:52:59;;;;;;;38.38;19.42;;;;;;;;;;12846746;19;20363;-65
2023/01/11 20:57:17;;;;;;;33.08;18.17;;;;;;;;;;12845430;19;20379;-65
2023/01/11 21:01:36;;;;;;;36.07;17.97;;;;;;;;;;12844801;19;20494;-65
2023/01/11 21:05:55;;;;;;;39.17;18.63;;;;;;;;;;12845525;19;20469;-64
2023/01/11 21:10:12;;;;;;;;;;;;;;;;;;12845662;19;20468;-65
2023/01/11 21:14:30;;;;;;;40.20;20.75;;;;;;;;;;12844399;19;20334;-64
2023/01/11 21:19:03;;;;;;;40.50;18.45;;;;;;;;;;12844926;19;20376;-67
2023/01/11 21:23:21;;;;;;;46.92;19.30;;;;;;;;;;12841793;19;20349;-66
2023/01/11 21:27:39;;;;;;;44.60;19.85;;;;;;;;;;12844149;19;20146;-66
2023/01/11 21:31:56;;;;;;;39.88;19.60;;;;;;;;;;12843256;19;20482;-65
2023/01/11 21:36:17;;;;;;;93.77;40.17;;;;;;;;;;12842907;19;20351;-64
2023/01/11 21:40:35;;;;;;;65.90;30.15;;;;;;;;;;12844153;19;20568;-65
2023/01/11 21:44:52;;;;;;;56.47;27.80;;;;;;;;;;12842225;19;20494;-64
2023/01/11 21:49:11;;;;;;;92.03;37.67;;;;;;;;;;12842558;19;20385;-65
2023/01/11 21:53:31;;;;;;;120.95;53.15;;;;;;;;;;12843164;19;20489;-65
2023/01/11 21:57:48;;;;;;;89.00;40.83;;;;;;;;;;12842696;19;20478;-64
2023/01/11 22:02:08;;;;;;;99.77;42.77;;;;;;;;;;12840903;19;20330;-67
2023/01/11 22:06:26;;;;;;;89.78;40.88;;;;;;;;;;12839735;19;20342;-66
2023/01/11 22:10:55;;;;;;;96.90;41.97;;;;;;;;;;12841777;19;20493;-65
2023/01/11 22:15:13;;;;;;;74.78;37.08;;;;;;;;;;12840997;19;20014;-65
2023/01/11 22:19:31;;;;;;;83.83;36.73;;;;;;;;;;12842551;19;20023;-65
2023/01/11 22:23:54;;;;;;;73.37;36.07;;;;;;;;;;12841660;19;20607;-65
2023/01/11 22:28:12;;;;;;;115.75;56.72;;;;;;;;;;12842557;19;20371;-65
2023/01/11 22:32:30;;;;;;;55.13;27.30;;;;;;;;;;12840850;19;20498;-64
2023/01/11 22:36:48;;;;;;;47.10;20.90;;;;;;;;;;12840994;19;20385;-64
2023/01/11 22:41:05;;;;;;;51.80;21.67;;;;;;;;;;12839320;19;20070;-67
2023/01/11 22:45:23;;;;;;;48.05;23.35;;;;;;;;;;12836938;19;20395;-65
2023/01/11 22:49:41;;;;;;;59.90;28.43;;;;;;;;;;12838150;19;20457;-65
2023/01/11 22:53:58;;;;;;;67.72;28.25;;;;;;;;;;12839514;19;20472;-65
2023/01/11 22:58:19;;;;;;;43.05;23.23;;;;;;;;;;12841955;19;20461;-66
2023/01/11 23:02:36;;;;;;;36.47;17.35;;;;;;;;;;12839522;19;20401;-65
2023/01/11 23:06:54;;;;;;;36.07;15.00;;;;;;;;;;12838666;19;20340;-65
2023/01/11 23:15:58;;;;;;;35.95;18.23;;;;;;;;;;12838873;19;20485;-66
2023/01/11 23:20:16;;;;;;;35.30;15.90;;;;;;;;;;12838565;19;20014;-66
2023/01/11 23:24:36;;;;;;;31.90;15.45;;;;;;;;;;12837789;19;20494;-65
2023/01/11 23:28:54;;;;;;;38.13;17.65;;;;;;;;;;12838156;19;20082;-66
2023/01/11 23:33:11;;;;;;;42.63;19.13;;;;;;;;;;12837415;19;20387;-66
2023/01/11 23:37:29;;;;;;;34.60;15.95;;;;;;;;;;12837469;19;20446;-66
2023/01/11 23:51:04;;;;;;;28.63;14.95;;;;;;;;;;12836110;19;20473;-66
2023/01/11 23:55:21;;;;;;;40.33;17.73;;;;;;;;;;12840208;19;20102;-67
2023/01/11 23:59:41;;;;;;;40.30;20.00;;;;;;;;;;12849318;19;20494;-67
